Country
Station

 

Weather  for  Wick  -  United Kingdom    United Kingdom

  
5 °C (41 °F)
    
 
 

Current METAR for Wick is :

EGPC 212220Z AUTO 18007KT 9999 NCD 05/03 Q1025

 

This is a report for Wick - United Kingdom.
 
The report was made 29 minutes ago, at 22:20 UTC .
The wind was blowing at a speed of 3.6 meters per second (8.1 miles per hour) from south (180°).
 
The temperature was 5 °C (41 °F), with a dew-point at 3 °C (37 °F).
The atmospheric pressure was 1025 hPa (30.27 inHg).
The relative humidity was 86.9%.
 
The overall visibility was greater than 10 kilometers (6.2 miles).
 

 
 
 
 

Country :   A   B   C   D   E   F   G   H   I   J   K   L   M   N   O   P   Q   R   S   T   U   V   W   Y   Z

 

Site Info  |  Disclaimer  |  Credits  |  Privacy
Contact us  |  Add to favorites
© 2013-2018 METARs - All rights reserved